Metar z pełnej godziny Komunikat METAR ze strony awiacja.imgw.pl Metar G00 EPLL METAR EPLL 230300Z 19006KT 130V230 9999 BKN037 OVC044 08/06 Q0994 =